Latest Coastal Weather Observations for Edithburgh

IDS60701

Issued at 11:11 pm CDT Saturday 10 December 2016 (issued every 10 minutes, with the page automatically refreshed every 10 minutes)

About coastal observations | Map of coastal stations | Coastal observations for SA | Marine services | Other Formats
Station Details ID: 022046 Name: EDITHBURGH Lat: -35.11 Lon: 137.74 Height: 6.0 m
Data from the previous 72 hours. | See also: Recent months at Edithburgh
Date/Time
CDT
Temp
°C
Wind Pressure Rain since
9am
mm
Weather Cloud Vis
km
Sea
Height
m
Swell
Dir  Spd
kts
Gust
kts
hPa Trend Height
m
Period
s
Dir
10/11:00pm 15.0 SSE 11 15 1023.0 - 0.0 - - - - - - -
10/10:30pm 15.1 SSE 12 16 1022.9 - 0.0 - - - - - - -
10/10:00pm 15.3 SSE 14 18 1022.8 - 0.0 - - - - - - -
10/09:30pm 15.5 SSE 15 20 1022.7 - 0.0 - - - - - - -
10/09:00pm 15.7 SSE 15 20 1022.5 - 0.0 - - - - - - -
10/08:30pm 15.8 SSE 16 21 1022.3 - 0.0 - - - - - - -
10/08:00pm 16.2 SSE 17 22 1022.1 - 0.0 - - - - - - -
10/07:30pm 16.9 SSE 15 22 1022.0 - 0.0 - - - - - - -
10/07:00pm 17.6 SSE 15 20 1021.8 - 0.0 - - - - - - -
10/06:30pm 17.9 SSE 16 20 1021.6 - 0.0 - - - - - - -
10/06:00pm 18.4 SSE 15 21 1021.5 - 0.0 - - - - - - -
10/05:30pm 18.4 SSE 16 20 1021.6 - 0.0 - - - - - - -
10/05:00pm 19.4 SSE 15 19 1021.9 - 0.0 - - - - - - -
10/04:30pm 19.5 SSE 14 17 1022.0 - 0.0 - - - - - - -
10/04:00pm 19.9 SSE 11 14 1022.2 - 0.0 - - - - - - -
10/03:30pm 18.8 SSE 11 14 1022.3 - 0.0 - - - - - - -
10/03:00pm 18.8 SE 10 13 1022.6 - 0.0 - - - - - - -
10/02:30pm 18.9 SE 9 12 1022.9 - 0.0 - - - - - - -
10/02:00pm 18.4 SE 9 12 1023.1 - 0.0 - - - - - - -
10/01:30pm 18.7 SE 10 13 1023.5 - 0.0 - - - - - - -
10/01:00pm 18.4 SE 8 11 1023.7 - 0.0 - - - - - - -
10/12:30pm 18.7 ENE 8 10 1023.8 - 0.0 - - - - - - -
10/12:00pm 18.3 ENE 7 10 1023.8 - 0.0 - - - - - - -
10/11:30am 18.8 NE 7 10 1024.0 - 0.0 - - - - - - -
10/11:00am 18.0 NE 6 8 1024.1 - 0.0 - - - - - - -
10/10:30am 18.1 NE 5 8 1024.1 - 0.0 - - - - - - -
10/10:00am 17.8 E 5 9 1024.2 - 0.0 - - - - - - -
10/09:30am 17.1 ENE 4 7 1024.3 - 0.0 - - - - - - -
10/09:00am 16.9 E 6 8 1024.1 - 0.0 - - - - - - -
10/08:30am 16.2 E 7 9 1023.9 - 0.0 - - - - - - -
10/08:00am 16.0 E 10 13 1023.7 - 0.0 - - - - - - -
10/07:30am 15.2 E 9 12 1023.5 - 0.0 - - - - - - -
10/07:00am 14.5 E 9 11 1023.3 - 0.0 - - - - - - -
10/06:30am 13.8 ESE 7 10 1023.1 - 0.0 - - - - - - -
10/06:00am 12.9 ESE 7 9 1022.8 - 0.0 - - - - - - -
10/05:30am 13.0 ESE 7 9 1022.6 - 0.0 - - - - - - -
10/05:00am 13.2 ESE 7 10 1022.2 - 0.0 - - - - - - -
10/04:30am 13.0 ESE 7 10 1022.5 - 0.0 - - - - - - -
10/04:00am 13.2 ESE 9 11 1022.3 - 0.0 - - - - - - -
10/03:30am 13.1 SE 9 12 1022.3 - 0.0 - - - - - - -
10/03:00am 13.3 ESE 9 12 1022.5 - 0.0 - - - - - - -
10/02:30am 13.4 SE 9 12 1022.7 - 0.0 - - - - - - -
10/02:00am 13.4 SE 9 11 1022.9 - 0.0 - - - - - - -
10/01:30am 13.4 SE 10 13 1023.0 - 0.0 - - - - - - -
10/01:00am 13.6 SE 9 11 1023.3 - 0.0 - - - - - - -
10/12:30am 13.7 SE 10 15 1023.2 - 0.0 - - - - - - -
10/12:00am 13.6 SE 9 13 1023.6 - 0.0 - - - - - - -
 
Date/Time
CDT
Temp
°C
Wind Pressure Rain since
9am
mm
Weather Cloud Vis
km
Sea
Height
m
Swell
Dir  Spd
kts
Gust
kts
hPa Trend Height
m
Period
s
Dir
09/11:30pm 13.8 SE 9 12 1023.9 - 0.0 - - - - - - -
09/11:00pm 14.0 SE 9 13 1024.0 - 0.0 - - - - - - -
09/10:30pm 13.9 SE 10 13 1023.8 - 0.0 - - - - - - -
09/10:00pm 14.0 SE 9 13 1023.9 - 0.0 - - - - - - -
09/09:30pm 14.1 SE 10 13 1023.5 - 0.0 - - - - - - -
09/09:00pm 14.3 SE 12 15 1023.5 - 0.0 - - - - - - -
09/08:30pm 14.5 SE 13 17 1023.3 - 0.0 - - - - - - -
09/08:00pm 15.0 SE 11 15 1023.1 - 0.0 - - - - - - -
09/07:30pm 15.5 SSE 11 15 1023.0 - 0.0 - - - - - - -
09/07:00pm 16.1 SSE 11 14 1022.7 - 0.0 - - - - - - -
09/06:30pm 16.9 SSE 11 15 1022.4 - 0.0 - - - - - - -
09/06:00pm 16.9 SSE 10 13 1022.2 - 0.0 - - - - - - -
09/05:30pm 16.8 SE 9 13 1022.2 - 0.0 - - - - - - -
09/05:00pm 17.4 SSE 8 11 1022.3 - 0.0 - - - - - - -
09/04:30pm 17.5 SSE 8 11 1022.4 - 0.0 - - - - - - -
09/04:00pm 17.4 SSE 8 12 1022.4 - 0.0 - - - - - - -
09/03:30pm 17.2 SSE 9 13 1022.3 - 0.0 - - - - - - -
09/03:00pm 17.5 S 8 14 1022.5 - 0.0 - - - - - - -
09/02:30pm 17.8 SSE 9 13 1022.8 - 0.0 - - - - - - -
09/02:00pm 18.6 SE 8 11 1022.9 - 0.0 - - - - - - -
09/01:30pm 18.3 SSE 9 13 1023.1 - 0.0 - - - - - - -
09/01:00pm 17.1 SSE 9 13 1023.4 - 0.0 - - - - - - -
09/12:30pm 16.5 S 10 13 1023.5 - 0.0 - - - - - - -
09/12:00pm 16.7 S 8 13 1023.4 - 0.0 - - - - - - -
09/11:30am 17.2 S 7 11 1023.4 - 0.0 - - - - - - -
09/11:00am 16.2 SSW 7 11 1023.3 - 0.0 - - - - - - -
09/10:30am 16.1 S 6 9 1023.0 - 0.0 - - - - - - -
09/10:00am 15.6 SSW 9 14 1023.1 - 0.0 - - - - - - -
09/09:30am 15.7 S 8 13 1023.0 - 0.0 - - - - - - -
09/09:00am 15.3 SSW 9 13 1022.7 - 0.0 - - - - - - -
09/08:30am 14.9 SSW 10 16 1022.3 - 0.0 - - - - - - -
09/08:00am 14.6 SSW 9 12 1021.9 - 0.0 - - - - - - -
09/07:30am 14.3 SSW 12 17 1021.4 - 0.0 - - - - - - -
09/07:00am 13.9 SSW 13 18 1020.8 - 0.0 - - - - - - -
09/06:30am 13.8 SSW 12 17 1020.4 - 0.0 - - - - - - -
09/06:00am 13.5 SSW 10 16 1020.1 - 0.0 - - - - - - -
09/05:30am 13.1 SSW 11 15 1019.7 - 0.0 - - - - - - -
09/05:00am 13.5 SSW 12 16 1019.3 - 0.0 - - - - - - -
09/04:30am 13.6 SSW 10 15 1019.1 - 0.0 - - - - - - -
09/04:00am 13.6 SSW 12 17 1018.7 - 0.0 - - - - - - -
09/03:30am 13.3 SSW 12 16 1018.4 - 0.0 - - - - - - -
09/03:00am 13.7 SSW 11 15 1018.2 - 0.0 - - - - - - -
09/02:30am 13.6 SSW 10 15 1018.2 - 0.0 - - - - - - -
09/02:00am 13.6 SSW 12 16 1018.2 - 0.0 - - - - - - -
09/01:30am 13.3 SSW 14 20 1018.2 - 0.0 - - - - - - -
09/01:00am 13.1 SSW 13 21 1018.3 - 0.0 - - - - - - -
09/12:30am 13.6 SSW 17 24 1018.2 - 0.0 - - - - - - -
09/12:00am 14.0 SSW 17 22 1018.0 - 0.0 - - - - - - -
 
Date/Time
CDT
Temp
°C
Wind Pressure Rain since
9am
mm
Weather Cloud Vis
km
Sea
Height
m
Swell
Dir  Spd
kts
Gust
kts
hPa Trend Height
m
Period
s
Dir
08/11:30pm 14.1 SSW 16 19 1017.7 - 0.0 - - - - - - -
08/11:00pm 13.9 SSW 16 20 1017.7 - 0.0 - - - - - - -
08/10:30pm 14.1 SSW 17 23 1017.6 - 0.0 - - - - - - -
08/10:00pm 14.5 SSW 15 23 1017.4 - 0.0 - - - - - - -
08/09:30pm 14.7 SSW 20 24 1016.5 - 0.0 - - - - - - -
08/09:00pm 15.4 SSW 15 21 1016.1 - 0.0 - - - - - - -
08/08:30pm 15.3 SW 15 21 1015.6 - 0.0 - - - - - - -
08/08:00pm 15.8 SW 15 23 1015.1 - 0.0 - - - - - - -
08/07:30pm 15.7 SW 15 23 1014.7 - 0.0 - - - - - - -
08/07:18pm 16.1 WSW 17 28 1014.4 - 0.0 - - - - - - -
08/07:00pm 16.2 WSW 18 26 1014.2 - 0.0 - - - - - - -
08/06:30pm 17.2 WSW 17 25 1013.5 - 0.0 - - - - - - -
08/06:00pm 16.6 WSW 18 25 1012.9 - 0.0 - - - - - - -
08/05:35pm 17.9 WSW 21 31 1012.4 - 0.0 - - - - - - -
08/05:30pm 18.3 WSW 21 29 1012.5 - 0.0 - - - - - - -
08/05:00pm 18.4 WSW 21 28 1012.0 - 0.0 - - - - - - -
08/04:45pm 18.5 WSW 24 34 1011.7 - 0.0 - - - - - - -
08/04:30pm 18.3 WSW 24 31 1011.4 - 0.0 - - - - - - -
08/04:06pm 19.9 WSW 21 32 1011.5 - 0.0 - - - - - - -
08/04:00pm 18.5 WSW 24 32 1011.3 - 0.0 - - - - - - -
08/03:30pm 19.5 WSW 21 31 1011.0 - 0.0 - - - - - - -
08/03:00pm 19.4 WSW 20 31 1010.9 - 0.0 - - - - - - -
08/02:31pm 19.7 W 21 33 1011.0 - 0.0 - - - - - - -
08/02:30pm 20.3 W 21 31 1011.1 - 0.0 - - - - - - -
08/02:06pm 19.1 W 23 34 1011.0 - 0.0 - - - - - - -
08/02:00pm 19.2 W 22 29 1010.9 - 0.0 - - - - - - -
08/01:30pm 19.3 WSW 23 33 1010.7 - 0.0 - - - - - - -
08/01:00pm 19.8 WSW 24 36 1010.4 - 0.0 - - - - - - -
08/12:54pm 18.8 WSW 25 36 1010.3 - 0.0 - - - - - - -
08/12:30pm 18.8 WSW 24 32 1010.1 - 0.0 - - - - - - -
08/12:00pm 19.2 WSW 21 32 1009.7 - 0.0 - - - - - - -
08/11:56am 19.3 WSW 22 32 1009.5 - 0.0 - - - - - - -
08/11:30am 18.4 WSW 22 29 1009.1 - 0.0 - - - - - - -
08/11:04am 18.7 WSW 21 31 1009.1 - 0.0 - - - - - - -
08/11:00am 18.2 W 21 28 1009.1 - 0.0 - - - - - - -
08/10:48am 18.6 WSW 21 32 1009.0 - 0.0 - - - - - - -
08/10:30am 18.0 WSW 22 31 1008.6 - 0.0 - - - - - - -
08/10:00am 18.1 WSW 24 34 1008.2 - 0.0 - - - - - - -
08/09:32am 17.6 WSW 22 33 1007.8 - 0.0 - - - - - - -
08/09:30am 16.9 W 22 31 1007.8 - 0.0 - - - - - - -
08/09:00am 17.2 W 18 26 1007.7 - 4.2 - - - - - - -
08/08:37am 16.7 W 19 30 1007.7 - 4.2 - - - - - - -
08/08:30am 16.4 W 21 30 1007.6 - 4.2 - - - - - - -
08/08:11am 16.0 W 18 30 1007.3 - 4.2 - - - - - - -
08/08:00am 14.6 W 15 23 1007.4 - 4.2 - - - - - - -
08/07:33am 15.9 WSW 17 28 1007.0 - 4.0 - - - - - - -
08/07:30am 15.9 WSW 18 28 1006.9 - 4.0 - - - - - - -
08/07:26am 15.9 WSW 17 28 1006.6 - 4.0 - - - - - - -
08/07:00am 15.5 WSW 17 22 1006.2 - 4.0 - - - - - - -
08/06:45am 15.6 W 18 29 1005.9 - 4.0 - - - - - - -
08/06:30am 15.2 WSW 19 26 1005.6 - 4.0 - - - - - - -
08/06:00am 15.1 WSW 20 27 1005.1 - 4.0 - - - - - - -
08/05:30am 15.3 W 21 28 1004.5 - 4.0 - - - - - - -
08/05:00am 15.4 WSW 19 27 1004.3 - 4.0 - - - - - - -
08/04:32am 15.1 WSW 19 29 1003.9 - 4.0 - - - - - - -
08/04:30am 15.1 WSW 17 25 1004.0 - 4.0 - - - - - - -
08/04:16am 15.1 WSW 18 29 1003.7 - 4.0 - - - - - - -
08/04:00am 15.1 W 19 28 1003.5 - 4.0 - - - - - - -
08/03:30am 15.3 WSW 22 34 1002.8 - 4.0 - - - - - - -
08/03:27am 15.4 WSW 24 34 1002.7 - 4.0 - - - - - - -
08/03:00am 16.3 WSW 22 31 1002.0 - 4.0 - - - - - - -
08/02:56am 16.6 WSW 23 33 1001.9 - 4.0 - - - - - - -
08/02:30am 17.5 W 22 32 1001.4 - 4.0 - - - - - - -
08/02:29am 17.5 W 21 32 1001.4 - 4.0 - - - - - - -
08/02:00am 17.5 W 21 28 1001.0 - 4.0 - - - - - - -
08/01:38am 17.6 W 18 28 1000.9 - 4.0 - - - - - - -
08/01:30am 17.9 W 21 28 1000.6 - 3.6 - - - - - - -
08/01:27am 18.4 W 20 28 1000.5 - 3.6 - - - - - - -
08/01:00am 19.6 W 12 17 1000.6 - 3.6 - - - - - - -
08/12:30am 21.7 NW 17 28 1000.0 - 3.6 - - - - - - -
08/12:27am 21.4 NW 15 28 1000.0 - 3.6 - - - - - - -
08/12:00am 21.2 NW 12 16 999.2 - 3.6 Recent precip. - - - - - -
 
Date/Time
CDT
Temp
°C
Wind Pressure Rain since
9am
mm
Weather Cloud Vis
km
Sea
Height
m
Swell
Dir  Spd
kts
Gust
kts
hPa Trend Height
m
Period
s
Dir
07/11:30pm 20.8 NNW 12 18 998.9 - 3.6 - - - - - - -

Other Formats:

Comma delimited format used in spreadsheet applications
http://www.bom.gov.au/fwo/IDS60701/IDS60701.94809.axf

JavaScript Object Notation format (JSON) in row-major order
http://www.bom.gov.au/fwo/IDS60701/IDS60701.94809.json